Time;durP1;ratioP1;P1;durP2;ratioP2;P2;SDS_P1;SDS_P2;PMS_P1;PMS_P2;Temp;Humidity;BMP_temperature;BMP_pressure;BME280_temperature;BME280_humidity;BME280_pressure;Samples;Min_cycle;Max_cycle;Signal;HPM_P1;HPM_P2
2023/04/21 00:00:53;;;;;;;;;;;;;;;7.06;92.94;98761.63;5061047;28;19917;-79
2023/04/21 00:03:21;;;;;;;;;;;;;;;7.06;92.81;98768.78;5055176;28;20010;-79
2023/04/21 00:05:47;;;;;;;;;;;;;;;7.04;93.57;98763.69;5059633;28;20022;-79
2023/04/21 00:08:12;;;;;;;;;;;;;;;7.08;93.09;98769.34;5064204;28;20015;-79
2023/04/21 00:10:37;;;;;;;;;;;;;;;7.05;94.06;98760.03;5057958;28;19963;-79
2023/04/21 00:13:03;;;;;;;;;;;;;;;7.08;92.67;98758.72;5058001;28;19956;-79
2023/04/21 00:15:28;;;;;;;;;;;;;;;7.05;93.23;98753.91;5056688;28;19921;-80
2023/04/21 00:17:53;;;;;;;;;;;;;;;7.08;92.40;98754.25;5055253;28;19987;-80
2023/04/21 00:20:19;;;;;;;;;;;;;;;7.08;92.18;98751.59;5044911;28;19967;-80
2023/04/21 00:22:44;;;;;;;;;;;;;;;7.06;93.12;98744.88;5043795;28;19932;-80
2023/04/21 00:25:09;;;;;;;;;;;;;;;7.09;92.16;98739.13;5053388;28;19968;-80
2023/04/21 00:27:35;;;;;;;;;;;;;;;7.07;91.37;98742.03;5067786;28;19920;-80
2023/04/21 00:30:00;;;;;;;;;;;;;;;7.08;91.32;98735.66;5054349;28;19974;-80
2023/04/21 00:32:25;;;;;;;;;;;;;;;7.17;89.82;98728.19;5053417;28;19974;-80
2023/04/21 00:34:51;;;;;;;;;;;;;;;7.10;90.77;98730.94;5051771;28;19960;-80
2023/04/21 00:37:16;;;;;;;;;;;;;;;7.15;90.93;98717.78;5053530;28;19963;-80
2023/04/21 00:39:41;;;;;;;;;;;;;;;7.13;92.53;98721.72;5048192;28;20369;-80
2023/04/21 00:42:06;;;;;;;;;;;;;;;7.18;90.30;98725.31;5047717;28;20442;-80
2023/04/21 00:44:31;;;;;;;;;;;;;;;7.20;89.83;98736.50;5055417;28;19916;-80
2023/04/21 00:46:57;;;;;;;;;;;;;;;7.29;87.91;98739.63;5050465;28;19917;-80
2023/04/21 00:49:23;;;;;;;;;;;;;;;7.51;83.95;98736.16;5067762;28;19920;-80
2023/04/21 00:51:49;;;;;;;;;;;;;;;7.50;85.53;98744.38;5048490;28;19970;-81
2023/04/21 00:54:14;;;;;;;;;;;;;;;7.53;84.23;98752.66;5053050;28;20335;-80
2023/04/21 00:56:39;;;;;;;;;;;;;;;7.45;85.67;98747.72;5051238;28;19917;-80
2023/04/21 00:59:05;;;;;;;;;;;;;;;7.40;88.16;98750.22;5065671;28;20099;-80
2023/04/21 01:01:31;;;;;;;;;;;;;;;7.65;81.12;98746.53;5055518;28;20016;-80
2023/04/21 01:04:00;;;;;;;;;;;;;;;7.34;87.51;98750.34;5052365;28;19920;-80
2023/04/21 01:06:28;;;;;;;;;;;;;;;7.31;87.10;98748.97;5054174;28;19955;-80
2023/04/21 01:08:54;;;;;;;;;;;;;;;7.56;82.56;98759.38;5052971;28;19964;-80
2023/04/21 01:11:20;;;;;;;;;;;;;;;7.75;79.26;98752.91;5059020;28;19952;-80
2023/04/21 01:13:45;;;;;;;;;;;;;;;7.81;78.91;98759.94;5064267;28;20277;-80
2023/04/21 01:16:15;;;;;;;;;;;;;;;7.87;78.87;98758.19;5044920;28;19947;-80
2023/04/21 01:18:40;;;;;;;;;;;;;;;7.89;77.94;98756.94;5060937;28;19916;-80
2023/04/21 01:21:06;;;;;;;;;;;;;;;7.79;79.00;98758.56;5051301;28;20328;-80
2023/04/21 01:23:31;;;;;;;;;;;;;;;7.74;78.97;98753.94;5049987;28;19916;-80
2023/04/21 01:25:57;;;;;;;;;;;;;;;7.74;78.62;98753.94;5050019;28;19966;-80
2023/04/21 01:28:22;;;;;;;;;;;;;;;7.19;84.79;98750.81;5037005;28;19921;-80
2023/04/21 01:30:48;;;;;;;;;;;;;;;7.45;80.63;98753.03;5057013;28;19920;-81
2023/04/21 01:33:13;;;;;;;;;;;;;;;7.70;79.36;98746.66;5048944;28;20024;-80
2023/04/21 01:35:39;;;;;;;;;;;;;;;7.69;79.05;98750.38;5051805;28;19921;-80
2023/04/21 01:38:04;;;;;;;;;;;;;;;7.68;79.28;98752.22;5049760;28;19920;-80
2023/04/21 01:40:30;;;;;;;;;;;;;;;7.77;78.12;98760.63;5050452;28;19986;-80
2023/04/21 01:42:55;;;;;;;;;;;;;;;7.72;77.85;98756.03;5050605;28;19927;-81
2023/04/21 01:45:20;;;;;;;;;;;;;;;7.32;82.13;98761.22;5044518;28;19938;-80
2023/04/21 01:47:45;;;;;;;;;;;;;;;7.40;79.47;98752.88;5064878;28;19925;-80
2023/04/21 01:50:11;;;;;;;;;;;;;;;7.21;82.31;98747.91;5049022;28;19921;-80
2023/04/21 01:52:36;;;;;;;;;;;;;;;7.35;80.47;98749.31;5049140;28;20262;-80
2023/04/21 01:55:03;;;;;;;;;;;;;;;7.31;81.67;98746.31;5049033;28;20015;-80
2023/04/21 01:57:28;;;;;;;;;;;;;;;7.33;80.67;98749.56;5048087;28;19986;-81
2023/04/21 01:59:53;;;;;;;;;;;;;;;7.00;83.85;98743.97;5054525;28;19917;-80
2023/04/21 02:02:18;;;;;;;;;;;;;;;6.83;85.54;98743.00;5049337;28;20300;-80
2023/04/21 02:04:44;;;;;;;;;;;;;;;7.18;81.00;98733.28;5047438;28;19916;-80
2023/04/21 02:07:09;;;;;;;;;;;;;;;7.05;82.39;98733.50;5052368;28;19978;-80
2023/04/21 02:09:35;;;;;;;;;;;;;;;6.78;87.69;98740.22;5049973;28;19984;-80
2023/04/21 02:12:01;;;;;;;;;;;;;;;6.72;87.05;98733.19;5048146;28;19932;-80
2023/04/21 02:14:26;;;;;;;;;;;;;;;6.75;87.64;98740.66;5048188;28;20457;-80
2023/04/21 02:16:51;;;;;;;;;;;;;;;6.72;87.79;98741.94;5047123;28;19925;-80
2023/04/21 02:19:17;;;;;;;;;;;;;;;6.51;91.71;98745.06;5062520;28;19927;-80
2023/04/21 02:21:42;;;;;;;;;;;;;;;6.60;91.17;98742.91;5050002;28;19920;-80
2023/04/21 02:24:07;;;;;;;;;;;;;;;7.03;82.04;98735.56;5048022;28;20336;-80
2023/04/21 02:26:32;;;;;;;;;;;;;;;7.02;84.38;98733.13;5050586;28;19990;-80
2023/04/21 02:28:58;;;;;;;;;;;;;;;6.88;86.32;98747.63;5044977;28;19927;-80
2023/04/21 02:31:23;;;;;;;;;;;;;;;7.28;79.75;98738.81;5043671;28;20446;-80
2023/04/21 02:33:48;;;;;;;;;;;;;;;7.36;78.62;98743.78;5067298;28;19925;-80
2023/04/21 02:36:13;;;;;;;;;;;;;;;7.40;79.11;98736.97;5037968;28;19920;-80
2023/04/21 02:38:39;;;;;;;;;;;;;;;7.39;79.87;98739.84;5049914;28;20361;-80
2023/04/21 02:41:04;;;;;;;;;;;;;;;7.51;78.00;98743.34;5045139;28;20440;-80
2023/04/21 02:43:30;;;;;;;;;;;;;;;7.58;77.48;98739.50;5052614;28;19967;-80
2023/04/21 02:45:55;;;;;;;;;;;;;;;7.65;78.05;98750.00;5049024;28;20372;-80
2023/04/21 02:48:23;;;;;;;;;;;;;;;7.66;77.14;98749.00;5053926;28;20008;-80
2023/04/21 02:50:49;;;;;;;;;;;;;;;7.56;77.58;98746.91;5047747;28;20015;-80
2023/04/21 02:53:15;;;;;;;;;;;;;;;7.23;80.32;98754.59;5058567;28;20000;-80
2023/04/21 02:55:40;;;;;;;;;;;;;;;7.23;80.57;98751.16;5051471;28;20379;-80
2023/04/21 02:58:06;;;;;;;;;;;;;;;7.38;78.05;98749.66;5046830;28;20320;-80
2023/04/21 03:00:31;;;;;;;;;;;;;;;7.45;78.09;98753.03;5051865;28;19967;-80
2023/04/21 03:02:56;;;;;;;;;;;;;;;7.52;78.04;98751.06;5041835;28;19924;-80
2023/04/21 03:05:21;;;;;;;;;;;;;;;7.60;77.79;98751.75;5048590;28;19971;-80
2023/04/21 03:07:47;;;;;;;;;;;;;;;7.51;77.65;98744.13;5060673;28;19960;-80
2023/04/21 03:10:12;;;;;;;;;;;;;;;7.53;77.54;98746.56;5053154;28;19920;-81
2023/04/21 03:12:37;;;;;;;;;;;;;;;7.52;76.90;98748.41;5032999;28;19917;-81
2023/04/21 03:15:03;;;;;;;;;;;;;;;7.51;76.92;98738.81;5030743;28;20395;-80
2023/04/21 03:17:28;;;;;;;;;;;;;;;7.53;77.53;98741.25;5051253;28;19917;-80
2023/04/21 03:19:53;;;;;;;;;;;;;;;7.50;77.44;98742.53;5052666;28;19921;-80
2023/04/21 03:22:18;;;;;;;;;;;;;;;7.50;77.28;98739.88;5071440;28;19921;-80
2023/04/21 03:24:43;;;;;;;;;;;;;;;7.46;77.84;98744.03;5055562;28;19920;-80
2023/04/21 03:27:09;;;;;;;;;;;;;;;7.44;77.05;98743.44;5041967;28;19960;-81
2023/04/21 03:29:34;;;;;;;;;;;;;;;7.47;77.51;98742.97;5053534;28;19917;-80
2023/04/21 03:32:00;;;;;;;;;;;;;;;7.34;78.36;98740.53;5053932;28;19925;-80
2023/04/21 03:34:25;;;;;;;;;;;;;;;7.51;77.24;98744.13;5051135;28;20407;-80
2023/04/21 03:36:51;;;;;;;;;;;;;;;7.40;77.94;98741.47;5036783;28;19920;-80
2023/04/21 03:39:16;;;;;;;;;;;;;;;7.47;77.41;98748.28;5050626;28;19924;-80
2023/04/21 03:41:41;;;;;;;;;;;;;;;7.37;77.04;98742.75;5052225;28;20016;-80
2023/04/21 03:44:06;;;;;;;;;;;;;;;7.35;77.98;98731.56;5070256;28;20423;-80
2023/04/21 03:46:32;;;;;;;;;;;;;;;7.39;77.04;98735.34;5069420;28;19966;-80
2023/04/21 03:48:57;;;;;;;;;;;;;;;7.32;77.60;98739.16;5048665;28;19921;-80
2023/04/21 03:51:22;;;;;;;;;;;;;;;7.33;77.26;98733.63;5049795;28;19920;-80
2023/04/21 03:53:47;;;;;;;;;;;;;;;7.27;78.24;98737.19;5052524;28;19970;-80
2023/04/21 03:56:13;;;;;;;;;;;;;;;7.30;77.03;98730.59;5038927;28;20415;-80
2023/04/21 03:58:38;;;;;;;;;;;;;;;6.29;83.15;98736.00;5066335;28;20403;-80
2023/04/21 04:01:04;;;;;;;;;;;;;;;6.91;79.77;98723.28;5049252;28;20023;-80
2023/04/21 04:03:29;;;;;;;;;;;;;;;6.94;79.71;98720.19;5050165;28;19923;-80
2023/04/21 04:05:55;;;;;;;;;;;;;;;7.10;78.35;98722.97;5050164;28;19929;-80
2023/04/21 04:08:20;;;;;;;;;;;;;;;7.29;77.75;98713.91;5056281;28;20292;-80
2023/04/21 04:10:45;;;;;;;;;;;;;;;7.32;77.78;98716.06;5048753;28;19964;-80
2023/04/21 04:13:11;;;;;;;;;;;;;;;7.18;77.91;98714.69;5051182;28;19927;-80
2023/04/21 04:15:36;;;;;;;;;;;;;;;7.15;78.08;98706.38;5047048;28;20469;-80
2023/04/21 04:18:01;;;;;;;;;;;;;;;7.22;78.17;98717.69;5051642;28;19917;-80
2023/04/21 04:20:26;;;;;;;;;;;;;;;6.99;79.81;98720.31;5054011;28;19931;-80
2023/04/21 04:22:52;;;;;;;;;;;;;;;6.48;85.15;98720.88;5048453;28;20011;-80
2023/04/21 04:25:17;;;;;;;;;;;;;;;6.37;87.67;98722.44;5047202;28;20016;-80
2023/04/21 04:27:48;;;;;;;;;;;;;;;6.63;83.13;98726.56;5063467;28;19928;-80
2023/04/21 04:30:13;;;;;;;;;;;;;;;6.89;80.36;98726.19;5062315;28;20280;-80
2023/04/21 04:32:40;;;;;;;;;;;;;;;7.15;78.81;98730.25;5050855;28;19917;-80
2023/04/21 04:35:05;;;;;;;;;;;;;;;7.20;78.25;98731.19;5050898;28;19932;-81
2023/04/21 04:37:33;;;;;;;;;;;;;;;7.19;78.28;98728.75;5061888;28;19916;-80
2023/04/21 04:39:58;;;;;;;;;;;;;;;6.98;80.55;98734.63;5042061;28;19924;-80
2023/04/21 04:42:24;;;;;;;;;;;;;;;7.25;77.85;98731.28;5044130;28;19921;-80
2023/04/21 04:44:52;;;;;;;;;;;;;;;6.96;83.60;98729.53;5049638;28;19975;-80
2023/04/21 04:47:17;;;;;;;;;;;;;;;7.02;82.27;98733.94;5048745;28;19920;-80
2023/04/21 04:49:42;;;;;;;;;;;;;;;6.94;82.22;98730.81;5059706;28;20372;-80
2023/04/21 04:52:07;;;;;;;;;;;;;;;6.75;85.99;98740.66;5047607;28;19955;-81
2023/04/21 04:54:33;;;;;;;;;;;;;;;6.86;83.88;98745.19;5047940;28;20043;-80
2023/04/21 04:56:58;;;;;;;;;;;;;;;6.66;88.12;98742.03;5033767;28;20390;-80
2023/04/21 04:59:23;;;;;;;;;;;;;;;6.99;82.84;98741.56;5031211;28;19936;-80
2023/04/21 05:01:49;;;;;;;;;;;;;;;7.34;80.11;98750.34;5051483;28;19944;-80
2023/04/21 05:04:15;;;;;;;;;;;;;;;7.36;79.07;98749.09;5050836;28;19927;-80
2023/04/21 05:06:41;;;;;;;;;;;;;;;7.26;82.01;98756.81;5052155;28;20266;-80
2023/04/21 05:09:06;;;;;;;;;;;;;;;7.05;86.68;98754.72;5053831;28;19920;-80
2023/04/21 05:11:31;;;;;;;;;;;;;;;7.06;86.35;98756.31;5048850;28;19921;-80
2023/04/21 05:13:57;;;;;;;;;;;;;;;7.16;83.76;98751.28;5051430;28;19929;-80
2023/04/21 05:16:22;;;;;;;;;;;;;;;7.26;82.32;98756.81;5051427;28;19917;-80
2023/04/21 05:18:49;;;;;;;;;;;;;;;7.49;81.95;98758.69;5052555;28;19921;-80
2023/04/21 05:21:21;;;;;;;;;;;;;;;7.37;82.62;98763.16;5035791;28;19956;-80
2023/04/21 05:23:46;;;;;;;;;;;;;;;7.59;81.00;98761.56;5051935;28;20575;-80
2023/04/21 05:26:11;;;;;;;;;;;;;;;7.42;87.30;98766.78;5034307;28;19927;-80
2023/04/21 05:28:36;;;;;;;;;;;;;;;7.47;86.63;98764.22;5051797;28;19917;-80
2023/04/21 05:31:02;;;;;;;;;;;;;;;7.81;79.42;98754.63;5051379;28;19972;-80
2023/04/21 05:33:30;;;;;;;;;;;;;;;7.88;79.87;98750.00;5050888;28;19932;-80
2023/04/21 05:35:55;;;;;;;;;;;;;;;7.85;81.94;98760.28;5052127;28;19921;-80
2023/04/21 05:38:21;;;;;;;;;;;;;;;7.71;84.15;98765.00;5050289;28;19925;-80
2023/04/21 05:40:54;;;;;;;;;;;;;;;7.57;88.96;98761.81;5051945;28;19932;-80
2023/04/21 05:43:19;;;;;;;;;;;;;;;7.87;80.98;98756.34;5057527;28;19917;-80
2023/04/21 05:45:44;;;;;;;;;;;;;;;7.68;87.70;98756.72;5053760;28;19920;-80
2023/04/21 05:48:09;;;;;;;;;;;;;;;7.67;86.49;98755.91;5052455;28;19916;-80
2023/04/21 05:50:35;;;;;;;;;;;;;;;7.66;85.74;98756.97;5051870;28;19916;-80
2023/04/21 05:53:01;;;;;;;;;;;;;;;7.65;87.44;98765.13;5034531;28;20004;-80
2023/04/21 05:55:26;;;;;;;;;;;;;;;7.74;86.18;98755.78;5051468;28;20435;-80
2023/04/21 05:57:51;;;;;;;;;;;;;;;7.58;89.67;98750.13;5051775;28;20392;-80
2023/04/21 06:00:16;;;;;;;;;;;;;;;7.66;83.26;98751.66;5051358;28;19982;-80
2023/04/21 06:02:42;;;;;;;;;;;;;;;7.84;81.68;98748.84;5035636;28;19916;-80
2023/04/21 06:05:07;;;;;;;;;;;;;;;7.91;82.14;98754.84;5052144;28;19940;-80
2023/04/21 06:07:35;;;;;;;;;;;;;;;7.71;87.60;98745.63;5035003;28;20395;-80
2023/04/21 06:10:01;;;;;;;;;;;;;;;7.80;83.83;98750.34;5049771;28;20019;-80
2023/04/21 06:12:26;;;;;;;;;;;;;;;7.72;86.54;98744.59;5051014;28;20015;-80
2023/04/21 06:14:56;;;;;;;;;;;;;;;7.61;88.17;98748.88;5038058;28;19924;-80
2023/04/21 06:17:21;;;;;;;;;;;;;;;7.58;90.31;98750.13;5034720;28;19917;-80
2023/04/21 06:19:51;;;;;;;;;;;;;;;7.68;88.58;98738.94;5055407;28;19927;-80
2023/04/21 06:22:17;;;;;;;;;;;;;;;7.78;87.04;98746.31;5034806;28;20315;-80
2023/04/21 06:24:42;;;;;;;;;;;;;;;7.84;88.47;98748.06;5051482;28;19939;-80
2023/04/21 06:27:11;;;;;;;;;;;;;;;7.86;91.21;98746.78;5051328;28;20399;-80
2023/04/21 06:29:36;;;;;;;;;;;;;;;7.87;91.95;98747.56;5053968;28;20288;-80
2023/04/21 06:32:02;;;;;;;;;;;;;;;8.01;88.93;98744.44;5054666;28;20074;-80
2023/04/21 06:34:27;;;;;;;;;;;;;;;8.27;80.67;98753.78;5055169;28;20404;-80
2023/04/21 06:36:52;;;;;;;;;;;;;;;8.26;85.43;98752.94;5051214;28;19916;-80
2023/04/21 06:39:17;;;;;;;;;;;;;;;8.47;80.46;98746.19;5051208;28;20286;-80
2023/04/21 06:41:43;;;;;;;;;;;;;;;8.52;84.33;98746.25;5050742;28;19917;-80
2023/04/21 06:44:12;;;;;;;;;;;;;;;8.60;79.75;98737.09;5050705;28;19917;-80
2023/04/21 06:46:37;;;;;;;;;;;;;;;8.71;79.10;98739.72;5053602;28;19927;-80
2023/04/21 06:49:03;;;;;;;;;;;;;;;8.85;78.22;98746.34;5062233;28;19920;-80
2023/04/21 06:51:28;;;;;;;;;;;;;;;8.85;80.51;98741.03;5053291;28;19921;-80
2023/04/21 06:53:53;;;;;;;;;;;;;;;8.70;82.69;98738.09;5063873;28;19974;-80
2023/04/21 06:56:19;;;;;;;;;;;;;;;8.78;82.37;98736.91;5072462;28;19917;-80
2023/04/21 06:58:45;;;;;;;;;;;;;;;8.74;84.12;98744.56;5052584;28;20365;-80
2023/04/21 07:01:11;;;;;;;;;;;;;;;8.91;83.05;98749.91;5065812;28;19917;-80
2023/04/21 07:03:36;;;;;;;;;;;;;;;8.98;84.29;98739.91;5050399;28;19917;-80
2023/04/21 07:06:01;;;;;;;;;;;;;;;8.99;83.46;98739.69;5052935;28;20650;-80
2023/04/21 07:08:26;;;;;;;;;;;;;;;9.04;86.25;98739.75;5049892;28;20314;-80
2023/04/21 07:10:52;;;;;;;;;;;;;;;9.09;85.59;98739.03;5054776;28;20131;-80
2023/04/21 07:13:17;;;;;;;;;;;;;;;9.13;85.70;98736.72;5051300;28;19970;-80
2023/04/21 07:15:43;;;;;;;;;;;;;;;9.19;85.16;98733.88;5051986;28;19924;-80
2023/04/21 07:18:08;;;;;;;;;;;;;;;9.24;85.42;98741.94;5052290;28;20463;-80
2023/04/21 07:20:33;;;;;;;;;;;;;;;9.34;85.69;98741.31;5051790;28;20272;-80
2023/04/21 07:22:58;;;;;;;;;;;;;;;9.37;83.94;98743.50;5050649;28;20463;-80
2023/04/21 07:25:24;;;;;;;;;;;;;;;9.51;84.10;98734.91;5037234;28;20308;-79
2023/04/21 07:27:50;;;;;;;;;;;;;;;9.74;82.74;98739.25;5038014;28;19916;-80
2023/04/21 07:30:17;;;;;;;;;;;;;;;9.76;80.98;98737.94;5054112;28;20560;-80
2023/04/21 07:32:42;;;;;;;;;;;;;;;9.95;80.65;98740.31;5057699;28;20471;-80
2023/04/21 07:35:08;;;;;;;;;;;;;;;10.04;81.14;98736.16;5052148;28;19917;-80
2023/04/21 07:37:33;;;;;;;;;;;;;;;10.13;80.56;98740.88;5050580;28;20330;-80
2023/04/21 07:39:58;;;;;;;;;;;;;;;10.14;79.45;98739.78;5050108;28;20019;-79
2023/04/21 07:42:25;;;;;;;;;;;;;;;10.19;79.25;98739.88;5033805;28;20488;-80
2023/04/21 07:44:51;;;;;;;;;;;;;;;10.26;79.09;98739.69;5034317;28;19916;-80
2023/04/21 07:47:17;;;;;;;;;;;;;;;10.27;79.28;98744.75;5050797;28;19950;-80
2023/04/21 07:49:42;;;;;;;;;;;;;;;10.34;77.76;98737.38;5052274;28;19921;-80
2023/04/21 07:52:07;;;;;;;;;;;;;;;10.41;78.67;98740.66;5055084;28;19973;-80
2023/04/21 07:54:32;;;;;;;;;;;;;;;10.44;77.85;98742.03;5038909;28;20304;-80
2023/04/21 07:56:58;;;;;;;;;;;;;;;10.57;77.90;98738.16;5051747;28;19948;-80
2023/04/21 07:59:23;;;;;;;;;;;;;;;10.55;76.74;98733.88;5050741;28;19917;-80
2023/04/21 08:01:50;;;;;;;;;;;;;;;10.61;77.51;98736.59;5053455;28;19921;-80
2023/04/21 08:04:16;;;;;;;;;;;;;;;10.64;76.96;98728.09;5054252;28;20390;-80
2023/04/21 08:06:41;;;;;;;;;;;;;;;10.78;77.12;98724.78;5058329;28;19916;-80
2023/04/21 08:09:06;;;;;;;;;;;;;;;10.88;77.77;98727.53;5037527;28;20035;-80
2023/04/21 08:11:31;;;;;;;;;;;;;;;10.83;76.89;98722.16;5053719;28;19917;-79
2023/04/21 08:13:57;;;;;;;;;;;;;;;10.85;77.55;98725.38;5055256;28;20023;-80
2023/04/21 08:16:22;;;;;;;;;;;;;;;10.97;76.93;98725.19;5054176;28;19966;-80
2023/04/21 08:18:47;;;;;;;;;;;;;;;11.14;76.75;98728.53;5053715;28;20326;-79
2023/04/21 08:21:13;;;;;;;;;;;;;;;11.13;76.74;98725.09;5051527;28;19928;-80
2023/04/21 08:23:39;;;;;;;;;;;;;;;11.17;76.44;98725.38;5037237;28;19921;-80
2023/04/21 08:26:04;;;;;;;;;;;;;;;11.27;76.27;98733.47;5053930;28;20423;-80
2023/04/21 08:28:29;;;;;;;;;;;;;;;11.27;75.36;98726.25;5055248;28;19916;-80
2023/04/21 08:30:55;;;;;;;;;;;;;;;11.47;75.79;98725.59;5053797;28;20457;-80
2023/04/21 08:33:20;;;;;;;;;;;;;;;11.41;75.93;98723.97;5055432;28;19917;-80
2023/04/21 08:35:45;;;;;;;;;;;;;;;11.46;74.83;98724.00;5057876;28;19921;-80
2023/04/21 08:38:10;;;;;;;;;;;;;;;11.53;74.89;98721.13;5038370;28;19966;-80
2023/04/21 08:40:37;;;;;;;;;;;;;;;11.54;74.10;98718.16;5055266;28;19920;-80
2023/04/21 08:43:03;;;;;;;;;;;;;;;11.66;74.29;98709.97;5053688;28;19917;-80
2023/04/21 08:45:29;;;;;;;;;;;;;;;11.79;73.88;98710.34;5037197;28;19916;-80
2023/04/21 08:47:54;;;;;;;;;;;;;;;11.90;73.76;98717.34;5037025;28;20003;-80
2023/04/21 08:50:21;;;;;;;;;;;;;;;11.92;73.52;98714.41;5054798;28;19913;-80
2023/04/21 08:52:46;;;;;;;;;;;;;;;12.05;72.85;98711.28;5052540;28;20007;-79
2023/04/21 08:55:12;;;;;;;;;;;;;;;12.21;72.48;98718.28;5036843;28;19993;-79
2023/04/21 08:57:37;;;;;;;;;;;;;;;12.21;71.47;98701.44;5054310;28;19967;-80
2023/04/21 09:00:03;;;;;;;;;;;;;;;12.23;72.20;98710.78;5053172;28;20526;-79
2023/04/21 09:02:29;;;;;;;;;;;;;;;12.27;73.17;98705.75;5052098;28;19917;-79
2023/04/21 09:04:54;;;;;;;;;;;;;;;12.41;73.01;98707.66;5051911;28;20015;-80
2023/04/21 09:07:31;;;;;;;;;;;;;;;12.38;71.64;98710.88;5035592;28;20016;-80
2023/04/21 09:09:56;;;;;;;;;;;;;;;12.53;72.52;98702.06;5051497;28;19920;-80
2023/04/21 09:12:22;;;;;;;;;;;;;;;12.63;70.72;98699.41;5061902;28;20438;-80
2023/04/21 09:14:48;;;;;;;;;;;;;;;12.61;70.55;98699.66;5066948;28;20595;-80
2023/04/21 09:17:16;;;;;;;;;;;;;;;12.66;69.36;98693.53;5036394;28;19999;-79
2023/04/21 09:19:42;;;;;;;;;;;;;;;12.80;70.86;98702.63;5053666;28;19920;-80
2023/04/21 09:22:07;;;;;;;;;;;;;;;12.91;70.58;98700.78;5052921;28;20304;-80
2023/04/21 09:24:32;;;;;;;;;;;;;;;12.96;71.71;98706.13;5053008;28;19920;-80
2023/04/21 09:27:01;;;;;;;;;;;;;;;13.08;71.36;98698.69;5036034;28;19931;-80
2023/04/21 09:29:26;;;;;;;;;;;;;;;13.10;70.73;98704.59;5052632;28;19913;-80
2023/04/21 09:31:51;;;;;;;;;;;;;;;13.20;70.29;98704.56;5053743;28;19913;-80
2023/04/21 09:34:18;;;;;;;;;;;;;;;13.19;70.14;98695.72;5052128;28;19932;-80
2023/04/21 09:36:44;;;;;;;;;;;;;;;13.25;70.77;98701.91;5052405;28;19913;-80
2023/04/21 09:39:10;;;;;;;;;;;;;;;13.41;69.86;98696.25;5052857;28;19913;-82
2023/04/21 09:41:35;;;;;;;;;;;;;;;13.41;68.61;98690.88;5052913;28;19920;-80
2023/04/21 09:44:03;;;;;;;;;;;;;;;13.48;68.29;98699.44;5051838;28;20019;-80
2023/04/21 09:46:29;;;;;;;;;;;;;;;13.61;70.36;98697.31;5052745;28;19963;-80
2023/04/21 09:48:54;;;;;;;;;;;;;;;13.66;68.93;98698.09;5046450;28;20344;-80
2023/04/21 09:51:21;;;;;;;;;;;;;;;13.67;69.19;98696.22;5054102;28;19925;-80
2023/04/21 09:53:48;;;;;;;;;;;;;;;13.78;70.12;98693.22;5051584;28;20293;-80
2023/04/21 09:56:15;;;;;;;;;;;;;;;13.84;68.74;98688.66;5033861;28;21744;-80
2023/04/21 09:59:01;;;;;;;;;;;;;;;13.96;69.55;98689.13;5046370;28;20356;-80
2023/04/21 10:01:28;;;;;;;;;;;;;;;13.92;67.82;98680.03;5053833;28;19921;-80
2023/04/21 10:03:53;;;;;;;;;;;;;;;14.08;67.38;98674.34;5052162;28;19966;-80
2023/04/21 10:06:19;;;;;;;;;;;;;;;14.10;66.67;98671.38;5052500;28;20311;-80
2023/04/21 10:08:44;;;;;;;;;;;;;;;14.16;67.47;98672.94;5053232;28;19928;-80
2023/04/21 10:11:10;;;;;;;;;;;;;;;14.13;66.17;98668.16;5051983;28;20042;-80
2023/04/21 10:13:36;;;;;;;;;;;;;;;14.26;65.70;98654.13;5053990;28;19932;-79
2023/04/21 10:16:06;;;;;;;;;;;;;;;14.47;65.76;98650.28;5056331;28;20357;-80
2023/04/21 10:18:33;;;;;;;;;;;;;;;14.37;65.13;98649.53;5053141;28;19913;-80
2023/04/21 10:21:01;;;;;;;;;;;;;;;14.41;65.32;98650.59;5051678;28;19923;-80
2023/04/21 10:23:36;;;;;;;;;;;;;;;14.52;65.31;98642.19;5053182;28;19924;-80
2023/04/21 10:26:07;;;;;;;;;;;;;;;14.60;64.19;98644.28;5051614;28;19920;-80
2023/04/21 10:28:45;;;;;;;;;;;;;;;14.84;66.67;98645.19;5051593;28;20398;-80
2023/04/21 10:31:18;;;;;;;;;;;;;;;14.96;63.79;98634.06;5053053;28;19924;-80
2023/04/21 10:34:02;;;;;;;;;;;;;;;15.13;62.95;98633.66;5052181;28;19925;-80
2023/04/21 10:36:28;;;;;;;;;;;;;;;15.14;62.25;98632.53;5054192;28;20002;-80
2023/04/21 10:38:59;;;;;;;;;;;;;;;15.30;61.70;98626.75;5051737;28;19959;-80
2023/04/21 10:41:28;;;;;;;;;;;;;;;15.40;62.67;98631.22;5050827;28;20512;-80
2023/04/21 10:43:57;;;;;;;;;;;;;;;15.28;61.88;98622.75;5053223;28;19921;-80
2023/04/21 10:46:35;;;;;;;;;;;;;;;15.35;62.92;98617.84;5051246;28;19980;-80
2023/04/21 10:49:24;;;;;;;;;;;;;;;15.16;61.01;98616.97;5034468;28;19967;-80
2023/04/21 10:51:58;;;;;;;;;;;;;;;15.16;60.67;98611.59;5060259;28;19916;-80
2023/04/21 10:54:28;;;;;;;;;;;;;;;15.25;61.00;98612.53;5052263;28;20295;-80
2023/04/21 10:56:55;;;;;;;;;;;;;;;15.14;60.60;98609.16;5051361;28;20585;-80
2023/04/21 10:59:21;;;;;;;;;;;;;;;15.17;60.45;98599.72;5051526;28;19913;-80
2023/04/21 11:01:46;;;;;;;;;;;;;;;15.23;62.62;98610.16;5050911;28;19912;-80
2023/04/21 11:04:18;;;;;;;;;;;;;;;15.37;61.34;98602.22;5051814;28;19982;-80
2023/04/21 11:07:03;;;;;;;;;;;;;;;15.43;63.13;98593.00;5052838;28;20011;-80
2023/04/21 11:09:29;;;;;;;;;;;;;;;15.55;60.90;98602.31;5051000;28;19940;-81
2023/04/21 11:11:58;;;;;;;;;;;;;;;15.68;61.55;98595.44;5065708;28;20302;-80
2023/04/21 11:14:23;;;;;;;;;;;;;;;15.80;61.08;98587.75;5047262;28;20353;-80
2023/04/21 11:16:48;;;;;;;;;;;;;;;15.89;60.82;98591.41;5045800;28;19921;-80
2023/04/21 11:19:14;;;;;;;;;;;;;;;15.94;60.12;98582.47;5032672;28;19921;-80
2023/04/21 11:21:40;;;;;;;;;;;;;;;15.95;60.45;98586.75;5049820;28;20380;-80
2023/04/21 11:24:07;;;;;;;;;;;;;;;16.12;60.08;98576.31;5055900;28;19920;-80
2023/04/21 11:26:34;;;;;;;;;;;;;;;16.25;60.04;98580.97;5051042;28;19924;-80
2023/04/21 11:29:06;;;;;;;;;;;;;;;16.36;59.36;98572.44;5049748;28;19924;-80
2023/04/21 11:31:32;;;;;;;;;;;;;;;15.94;58.54;98575.19;5048777;28;19921;-80
2023/04/21 11:33:58;;;;;;;;;;;;;;;15.82;59.01;98572.13;5052222;28;20015;-80
2023/04/21 11:36:23;;;;;;;;;;;;;;;15.97;61.81;98565.72;5051977;28;19917;-80
2023/04/21 11:38:49;;;;;;;;;;;;;;;15.92;59.23;98555.84;5054481;28;20058;-80
2023/04/21 11:41:24;;;;;;;;;;;;;;;16.42;60.10;98563.16;5054329;28;19923;-80
2023/04/21 11:43:50;;;;;;;;;;;;;;;16.53;59.18;98563.88;5055045;28;19986;-80
2023/04/21 11:46:25;;;;;;;;;;;;;;;16.87;58.14;98568.94;5055575;28;20015;-81
2023/04/21 11:49:00;;;;;;;;;;;;;;;17.05;56.68;98560.00;5053008;28;19913;-80
2023/04/21 11:51:31;;;;;;;;;;;;;;;17.26;56.86;98555.84;5052575;28;19917;-80
2023/04/21 11:53:57;;;;;;;;;;;;;;;17.37;55.56;98559.13;5054831;28;19932;-80
2023/04/21 11:56:22;;;;;;;;;;;;;;;17.39;55.37;98555.03;5052769;28;19923;-81
2023/04/21 11:58:49;;;;;;;;;;;;;;;17.14;55.98;98558.22;5054279;28;19913;-81
2023/04/21 12:01:15;;;;;;;;;;;;;;;17.32;56.54;98549.25;5047957;28;19923;-81
2023/04/21 12:03:40;;;;;;;;;;;;;;;17.38;56.17;98553.47;5050196;28;19925;-81
2023/04/21 12:06:06;;;;;;;;;;;;;;;17.43;55.19;98544.47;5053958;28;20372;-80
2023/04/21 12:08:31;;;;;;;;;;;;;;;17.52;55.02;98543.47;5065866;28;19923;-81
2023/04/21 12:10:58;;;;;;;;;;;;;;;17.54;57.37;98546.66;5052806;28;20048;-80
2023/04/21 12:13:24;;;;;;;;;;;;;;;17.79;54.43;98561.56;5061414;28;19978;-80
2023/04/21 12:15:49;;;;;;;;;;;;;;;17.85;54.42;98553.06;5046974;28;19916;-80
2023/04/21 12:18:14;;;;;;;;;;;;;;;18.02;53.57;98538.91;5053946;28;19923;-80
2023/04/21 12:20:50;;;;;;;;;;;;;;;18.21;53.57;98531.47;5051713;28;20023;-81
2023/04/21 12:23:16;;;;;;;;;;;;;;;18.09;54.47;98535.78;5055232;28;19927;-80
2023/04/21 12:25:41;;;;;;;;;;;;;;;18.41;53.81;98532.91;5053188;28;19925;-81
2023/04/21 12:28:07;;;;;;;;;;;;;;;18.24;54.71;98530.84;5054144;28;20376;-81
2023/04/21 12:30:33;;;;;;;;;;;;;;;18.32;55.84;98534.72;5059375;28;20353;-81
2023/04/21 12:32:59;;;;;;;;;;;;;;;18.36;52.37;98525.69;5055801;28;19920;-81
2023/04/21 12:35:24;;;;;;;;;;;;;;;18.56;53.46;98536.06;5053234;28;19947;-81
2023/04/21 12:37:50;;;;;;;;;;;;;;;18.77;53.61;98535.53;5054764;28;20518;-81
2023/04/21 12:40:15;;;;;;;;;;;;;;;18.93;53.21;98536.75;5054694;28;19981;-81
2023/04/21 12:42:40;;;;;;;;;;;;;;;18.90;51.46;98527.34;5054369;28;19928;-81
2023/04/21 12:45:06;;;;;;;;;;;;;;;19.08;51.19;98531.75;5066947;28;19927;-81
2023/04/21 12:47:31;;;;;;;;;;;;;;;19.23;52.87;98527.81;5054648;28;19916;-81